Terminal Aerodrome Forecast
Issued by NWS Bismarck, ND

Home | Current Version | Previous Version | Text Only | Print | Product List | Glossary On
Versions: 1 2 3 4 5 6 7 8 9 10 11 12 13 14 15 16 17 18 19
000
FTUS43 KBIS 281832 AAA
TAFISN
TAF AMD
KISN 281832Z 2819/2918 VRB04KT P6SM SCT015
     FM282000 12005KT P6SM SCT030
     FM282300 01006KT P6SM SCT070
     FM291600 20006KT P6SM BKN150=

USA.gov is the U.S. government's official web portal to all federal, state and local government web resources and services.